createdAt,value
2023-01-17T00:00:11.105Z,86.07
2023-01-17T00:02:43.378Z,86.70
2023-01-17T00:05:28.775Z,87.10
2023-01-17T00:08:14.695Z,88.13
2023-01-17T00:10:42.489Z,88.20
2023-01-17T00:13:10.233Z,88.41
2023-01-17T00:15:39.993Z,89.08
2023-01-17T00:18:08.212Z,87.46
2023-01-17T00:20:54.825Z,87.37
2023-01-17T00:23:43.373Z,87.65
2023-01-17T00:26:18.395Z,86.87
2023-01-17T00:28:46.699Z,86.90
2023-01-17T00:31:15.783Z,87.28
2023-01-17T00:33:44.263Z,86.79
2023-01-17T00:36:36.173Z,87.01
2023-01-17T00:39:04.154Z,86.40
2023-01-17T00:41:32.212Z,86.80
2023-01-17T00:44:18.880Z,86.82
2023-01-17T00:47:04.792Z,86.93
2023-01-17T00:49:55.831Z,86.97
2023-01-17T00:52:42.706Z,87.17
2023-01-17T00:55:28.854Z,87.35
2023-01-17T01:01:25.827Z,87.52
2023-01-17T01:04:17.387Z,87.98
2023-01-17T01:07:02.600Z,87.69
2023-01-17T01:09:48.906Z,87.78
2023-01-17T01:12:34.700Z,87.58
2023-01-17T01:15:20.818Z,87.55
2023-01-17T01:18:06.845Z,87.72
2023-01-17T01:21:22.536Z,87.70
2023-01-17T01:24:08.853Z,87.71
2023-01-17T01:26:54.559Z,87.84
2023-01-17T01:29:40.541Z,87.59
2023-01-17T01:32:26.800Z,87.51
2023-01-17T01:34:54.209Z,87.62
2023-01-17T01:37:46.323Z,86.97
2023-01-17T01:40:18.613Z,86.96
2023-01-17T01:42:59.970Z,86.59
2023-01-17T01:45:30.375Z,86.45
2023-01-17T01:48:27.243Z,86.40
2023-01-17T01:50:54.367Z,86.10
2023-01-17T01:53:22.788Z,86.18
2023-01-17T01:55:51.384Z,86.14
2023-01-17T01:58:28.693Z,86.34
2023-01-17T02:00:56.313Z,86.68
2023-01-17T02:03:29.501Z,86.51
2023-01-17T02:06:28.145Z,87.05
2023-01-17T02:08:59.896Z,86.48
2023-01-17T02:11:28.411Z,86.75
2023-01-17T02:14:27.379Z,86.59
2023-01-17T02:17:19.177Z,86.44
2023-01-17T02:20:04.967Z,86.28
2023-01-17T02:23:05.371Z,86.97
2023-01-17T02:26:10.210Z,87.18
2023-01-17T02:28:54.334Z,86.94
2023-01-17T02:31:47.487Z,86.72
2023-01-17T02:34:41.236Z,86.69
2023-01-17T02:40:41.436Z,87.39
2023-01-17T02:43:15.275Z,86.80
2023-01-17T02:46:09.823Z,87.58
2023-01-17T02:48:41.006Z,87.07
2023-01-17T02:51:25.401Z,87.53
2023-01-17T02:54:15.230Z,87.52
2023-01-17T02:57:00.650Z,86.88
2023-01-17T03:00:14.740Z,86.87
2023-01-17T03:03:19.503Z,86.75
2023-01-17T03:06:01.054Z,86.80
2023-01-17T03:08:29.027Z,87.34
2023-01-17T03:11:22.310Z,86.83
2023-01-17T03:13:55.702Z,87.28
2023-01-17T03:22:10.226Z,87.04
2023-01-17T03:24:38.216Z,86.71
2023-01-17T03:27:06.245Z,87.14
2023-01-17T03:29:39.229Z,87.20
2023-01-17T03:32:06.221Z,86.76
2023-01-17T03:34:39.234Z,87.13
2023-01-17T03:37:06.258Z,87.62
2023-01-17T03:39:34.225Z,87.24
2023-01-17T03:42:07.217Z,86.85
2023-01-17T03:44:34.264Z,86.86
2023-01-17T03:49:54.204Z,86.60
2023-01-17T03:52:22.187Z,87.46
2023-01-17T03:54:50.322Z,87.27
2023-01-17T03:57:18.231Z,87.89
2023-01-17T03:59:47.345Z,87.44
2023-01-17T04:02:14.342Z,88.11
2023-01-17T04:04:47.180Z,88.34
2023-01-17T04:07:14.245Z,88.59
2023-01-17T04:09:47.221Z,87.71
2023-01-17T04:12:20.218Z,87.85
2023-01-17T04:14:48.366Z,87.73
2023-01-17T04:17:18.869Z,87.90
2023-01-17T04:19:47.811Z,88.12
2023-01-17T04:22:16.320Z,87.61
2023-01-17T04:24:44.204Z,88.54
2023-01-17T04:27:14.299Z,88.41
2023-01-17T04:29:42.202Z,89.10
2023-01-17T04:32:19.827Z,89.80
2023-01-17T04:34:48.243Z,89.69
2023-01-17T04:37:40.355Z,89.64
2023-01-17T04:40:10.874Z,89.53
2023-01-17T04:42:38.504Z,88.90
2023-01-17T04:45:07.080Z,89.17
2023-01-17T04:47:34.459Z,89.05
2023-01-17T04:50:02.238Z,89.55
2023-01-17T04:52:34.286Z,89.60
2023-01-17T04:55:02.221Z,89.81
2023-01-17T04:57:30.211Z,89.71
2023-01-17T04:59:58.286Z,89.65
2023-01-17T05:02:30.281Z,89.50
2023-01-17T05:04:58.801Z,89.51
2023-01-17T05:10:20.205Z,89.48
2023-01-17T05:12:58.766Z,89.69
2023-01-17T05:15:27.268Z,89.64
2023-01-17T05:17:55.073Z,89.60
2023-01-17T05:20:23.833Z,89.30
2023-01-17T05:22:56.906Z,89.24
2023-01-17T05:25:26.928Z,89.29
2023-01-17T05:27:54.377Z,89.16
2023-01-17T05:30:22.951Z,89.01
2023-01-17T05:32:58.131Z,88.97
2023-01-17T05:35:29.655Z,89.47
2023-01-17T05:37:58.697Z,89.19
2023-01-17T05:40:28.720Z,89.57
2023-01-17T05:42:58.076Z,89.31
2023-01-17T05:45:28.437Z,89.29
2023-01-17T05:47:57.938Z,89.52
2023-01-17T05:50:29.518Z,89.87
2023-01-17T05:52:59.444Z,89.92
2023-01-17T05:58:22.236Z,90.17
2023-01-17T06:00:50.291Z,90.71
2023-01-17T06:03:18.257Z,90.02
2023-01-17T06:08:45.169Z,90.11
2023-01-17T06:11:38.179Z,90.65
2023-01-17T06:14:06.183Z,90.71
2023-01-17T06:16:34.266Z,91.09
2023-01-17T06:19:06.187Z,90.70
2023-01-17T06:21:34.206Z,91.01
2023-01-17T06:24:04.057Z,90.80
2023-01-17T06:26:32.198Z,90.33
2023-01-17T06:29:01.649Z,90.36
2023-01-17T06:31:30.251Z,89.90
2023-01-17T06:34:02.962Z,90.34
2023-01-17T06:36:32.329Z,90.29
2023-01-17T06:39:00.233Z,90.28
2023-01-17T06:41:37.261Z,90.24
2023-01-17T06:44:04.272Z,90.34
2023-01-17T06:46:32.257Z,90.17
2023-01-17T06:49:00.150Z,90.49
2023-01-17T06:54:24.251Z,90.32
2023-01-17T06:56:52.174Z,90.11
2023-01-17T06:59:25.971Z,90.10
2023-01-17T07:01:54.695Z,90.02
2023-01-17T07:04:22.250Z,89.99
2023-01-17T07:06:50.198Z,89.93
2023-01-17T07:09:18.216Z,89.96
2023-01-17T07:11:46.162Z,90.14
2023-01-17T07:19:58.201Z,89.79
2023-01-17T07:25:30.167Z,89.34
2023-01-17T07:28:03.283Z,89.69
2023-01-17T07:30:35.289Z,89.30
2023-01-17T07:33:28.329Z,89.29
2023-01-17T07:35:56.152Z,89.23
2023-01-17T07:41:16.267Z,89.29
2023-01-17T07:43:44.326Z,89.63
2023-01-17T07:46:15.292Z,89.41
2023-01-17T07:48:42.606Z,89.44
2023-01-17T07:51:10.675Z,89.37
2023-01-17T07:53:38.262Z,89.12
2023-01-17T07:56:30.214Z,89.02
2023-01-17T07:59:02.194Z,89.24
2023-01-17T08:01:30.337Z,89.66
2023-01-17T08:04:25.730Z,89.37
2023-01-17T08:06:55.076Z,89.17
2023-01-17T08:09:23.423Z,89.31
2023-01-17T08:11:56.239Z,89.03
2023-01-17T08:14:24.903Z,89.53
2023-01-17T08:17:15.643Z,89.49
2023-01-17T08:19:44.808Z,89.79
2023-01-17T08:22:17.406Z,89.89
2023-01-17T08:24:44.633Z,89.47
2023-01-17T08:27:12.279Z,89.20
2023-01-17T08:29:46.728Z,89.81
2023-01-17T08:32:20.599Z,89.71
2023-01-17T08:35:13.446Z,89.32
2023-01-17T08:37:40.581Z,89.36
2023-01-17T08:40:17.123Z,89.30
2023-01-17T08:42:44.230Z,88.97
2023-01-17T08:45:12.447Z,89.09
2023-01-17T08:47:40.318Z,88.66
2023-01-17T08:50:12.203Z,89.02
2023-01-17T08:52:40.201Z,88.71
2023-01-17T08:55:15.129Z,88.69
2023-01-17T08:57:42.409Z,88.54
2023-01-17T09:00:10.888Z,88.80
2023-01-17T09:02:38.282Z,88.35
2023-01-17T09:05:07.253Z,88.78
2023-01-17T09:07:34.210Z,88.66
2023-01-17T09:10:02.395Z,88.70
2023-01-17T09:12:34.248Z,88.71
2023-01-17T09:15:02.905Z,89.05
2023-01-17T09:17:57.188Z,88.69
2023-01-17T09:20:25.225Z,88.46
2023-01-17T09:22:52.198Z,88.98
2023-01-17T09:25:25.255Z,89.61
2023-01-17T09:27:52.414Z,89.26
2023-01-17T09:30:25.449Z,89.75
2023-01-17T09:35:48.243Z,89.79
2023-01-17T09:38:16.615Z,89.28
2023-01-17T09:40:47.025Z,89.55
2023-01-17T09:43:31.166Z,89.41
2023-01-17T09:45:58.411Z,89.37
2023-01-17T09:48:37.806Z,89.50
2023-01-17T09:51:18.345Z,89.52
2023-01-17T09:53:46.278Z,89.66
2023-01-17T09:56:18.000Z,89.53
2023-01-17T09:59:33.022Z,89.56
2023-01-17T10:02:34.184Z,89.39
2023-01-17T10:05:19.169Z,89.15
2023-01-17T10:08:04.429Z,89.13
2023-01-17T10:11:06.306Z,88.51
2023-01-17T10:14:07.578Z,88.52
2023-01-17T10:16:40.694Z,88.39
2023-01-17T10:19:17.402Z,88.39
2023-01-17T10:22:36.003Z,88.26
2023-01-17T10:25:24.511Z,88.72
2023-01-17T10:27:58.708Z,88.99
2023-01-17T10:30:56.321Z,88.98
2023-01-17T10:33:31.221Z,88.44
2023-01-17T10:36:15.453Z,88.86
2023-01-17T10:38:46.872Z,88.40
2023-01-17T10:41:16.701Z,88.40
2023-01-17T10:43:57.923Z,88.28
2023-01-17T10:46:38.011Z,88.70
2023-01-17T10:49:18.074Z,87.93
2023-01-17T10:51:59.954Z,87.66
2023-01-17T10:55:05.508Z,87.89
2023-01-17T10:57:40.364Z,87.30
2023-01-17T11:00:40.103Z,87.48
2023-01-17T11:03:10.754Z,87.67
2023-01-17T11:05:40.722Z,87.67
2023-01-17T11:08:09.539Z,86.03
2023-01-17T11:10:46.506Z,87.25
2023-01-17T11:13:30.997Z,87.59
2023-01-17T11:16:08.757Z,86.28
2023-01-17T11:18:40.101Z,86.68
2023-01-17T11:21:23.265Z,85.87
2023-01-17T11:23:53.685Z,86.07
2023-01-17T11:26:34.796Z,86.11
2023-01-17T11:29:21.649Z,85.89
2023-01-17T11:31:50.382Z,85.35
2023-01-17T11:34:24.171Z,86.36
2023-01-17T11:37:18.501Z,85.95
2023-01-17T11:39:50.006Z,85.61
2023-01-17T11:42:36.046Z,85.29
2023-01-17T11:45:22.980Z,85.57
2023-01-17T11:51:16.614Z,84.87
2023-01-17T11:53:49.392Z,84.71
2023-01-17T11:56:28.496Z,84.04
2023-01-17T11:59:24.223Z,83.53
2023-01-17T12:02:04.922Z,84.22
2023-01-17T12:04:45.873Z,83.81
2023-01-17T12:07:46.849Z,83.72
2023-01-17T12:10:33.357Z,83.81
2023-01-17T12:13:33.061Z,84.10
2023-01-17T12:16:32.216Z,82.06
2023-01-17T12:19:06.768Z,82.45
2023-01-17T12:21:58.296Z,81.04
2023-01-17T12:24:35.421Z,82.15
2023-01-17T12:27:16.194Z,81.58
2023-01-17T12:30:25.339Z,80.88
2023-01-17T12:33:32.654Z,82.33
2023-01-17T12:36:41.221Z,81.23
2023-01-17T12:39:12.012Z,80.96
2023-01-17T12:42:27.811Z,81.90
2023-01-17T12:45:07.842Z,81.29
2023-01-17T12:48:15.017Z,81.80
2023-01-17T12:50:51.941Z,82.07
2023-01-17T12:53:32.584Z,82.38
2023-01-17T12:56:06.589Z,81.70
2023-01-17T12:58:48.777Z,81.70
2023-01-17T13:01:43.190Z,80.39
2023-01-17T13:04:25.340Z,81.28
2023-01-17T13:06:58.971Z,81.13
2023-01-17T13:09:41.464Z,81.86
2023-01-17T13:12:38.481Z,80.66
2023-01-17T13:15:24.861Z,81.75
2023-01-17T13:18:03.171Z,82.67
2023-01-17T13:20:32.992Z,82.22
2023-01-17T13:23:16.423Z,81.91
2023-01-17T13:25:50.210Z,81.77
2023-01-17T13:28:33.594Z,81.84
2023-01-17T13:31:30.508Z,81.64
2023-01-17T13:34:27.586Z,81.32
2023-01-17T13:37:17.420Z,80.78
2023-01-17T13:39:59.805Z,79.87
2023-01-17T13:42:38.964Z,81.01
2023-01-17T13:45:39.752Z,80.56
2023-01-17T13:48:20.142Z,80.16
2023-01-17T13:50:48.247Z,80.39
2023-01-17T13:53:31.356Z,79.46
2023-01-17T13:56:15.376Z,80.85
2023-01-17T13:58:47.154Z,79.76
2023-01-17T14:01:14.561Z,78.88
2023-01-17T14:03:54.252Z,79.00
2023-01-17T14:06:47.763Z,80.13
2023-01-17T14:09:42.106Z,80.11
2023-01-17T14:12:16.055Z,80.86
2023-01-17T14:14:48.441Z,80.30
2023-01-17T14:17:16.245Z,80.86
2023-01-17T14:19:48.906Z,80.95
2023-01-17T14:22:19.316Z,80.52
2023-01-17T14:28:38.504Z,80.41
2023-01-17T14:31:10.621Z,80.77
2023-01-17T14:36:33.221Z,80.22
2023-01-17T14:39:22.151Z,80.25
2023-01-17T14:41:50.299Z,79.76
2023-01-17T14:44:24.055Z,80.52
2023-01-17T14:46:52.235Z,80.50
2023-01-17T14:49:26.959Z,81.07
2023-01-17T14:52:05.081Z,80.43
2023-01-17T14:54:32.497Z,80.94
2023-01-17T14:57:25.617Z,80.27
2023-01-17T15:00:12.618Z,80.52
2023-01-17T15:02:42.614Z,80.66
2023-01-17T15:05:19.067Z,80.08
2023-01-17T15:07:52.832Z,81.16
2023-01-17T15:10:28.827Z,80.44
2023-01-17T15:13:32.636Z,81.04
2023-01-17T15:16:33.624Z,79.89
2023-01-17T15:19:09.557Z,80.90
2023-01-17T15:21:43.965Z,81.22
2023-01-17T15:24:28.757Z,80.41
2023-01-17T15:26:56.435Z,81.06
2023-01-17T15:29:48.641Z,81.21
2023-01-17T15:32:22.270Z,80.72
2023-01-17T15:34:51.550Z,80.95
2023-01-17T15:37:27.406Z,80.64
2023-01-17T15:40:11.413Z,80.71
2023-01-17T15:42:42.192Z,79.93
2023-01-17T15:45:22.188Z,80.50
2023-01-17T15:47:55.503Z,80.86
2023-01-17T15:50:29.916Z,79.80
2023-01-17T15:53:05.413Z,80.47
2023-01-17T15:55:43.036Z,80.93
2023-01-17T15:58:36.680Z,79.88
2023-01-17T16:01:14.740Z,81.05
2023-01-17T16:03:55.243Z,80.16
2023-01-17T16:06:45.653Z,80.76
2023-01-17T16:09:23.954Z,81.15
2023-01-17T16:11:52.548Z,81.34
2023-01-17T16:14:20.461Z,81.17
2023-01-17T16:16:52.824Z,81.65
2023-01-17T16:19:21.406Z,80.50
2023-01-17T16:21:48.453Z,81.16
2023-01-17T16:24:16.742Z,81.24
2023-01-17T16:26:44.277Z,81.64
2023-01-17T16:29:36.181Z,81.45
2023-01-17T16:32:28.356Z,81.97
2023-01-17T16:34:56.186Z,81.91
2023-01-17T16:40:17.054Z,82.05
2023-01-17T16:42:44.478Z,81.89
2023-01-17T16:45:13.170Z,82.05
2023-01-17T16:47:48.076Z,81.73
2023-01-17T16:50:18.672Z,81.94
2023-01-17T16:52:46.351Z,82.29
2023-01-17T16:55:16.411Z,82.09
2023-01-17T16:57:44.660Z,82.40
2023-01-17T17:00:18.263Z,82.69
2023-01-17T17:02:50.991Z,82.50
2023-01-17T17:05:25.965Z,82.49
2023-01-17T17:07:54.699Z,82.19
2023-01-17T17:10:48.308Z,82.31
2023-01-17T17:13:16.382Z,82.57
2023-01-17T17:15:45.247Z,82.73
2023-01-17T17:18:17.239Z,82.58
2023-01-17T17:20:45.134Z,82.62
2023-01-17T17:23:38.302Z,82.85
2023-01-17T17:26:11.324Z,83.02
2023-01-17T17:28:38.206Z,83.13
2023-01-17T17:31:10.419Z,83.20
2023-01-17T17:33:42.204Z,83.01
2023-01-17T17:36:15.480Z,83.29
2023-01-17T17:38:50.698Z,83.35
2023-01-17T17:41:26.053Z,83.52
2023-01-17T17:43:54.841Z,83.40
2023-01-17T17:46:28.955Z,83.62
2023-01-17T17:48:57.974Z,83.45
2023-01-17T17:51:37.252Z,83.58
2023-01-17T17:54:30.302Z,84.02
2023-01-17T17:57:03.226Z,84.08
2023-01-17T17:59:36.197Z,84.46
2023-01-17T18:02:10.727Z,84.59
2023-01-17T18:04:38.452Z,84.78
2023-01-17T18:07:06.576Z,84.64
2023-01-17T18:09:35.790Z,84.43
2023-01-17T18:12:04.923Z,85.03
2023-01-17T18:14:32.670Z,84.82
2023-01-17T18:17:00.495Z,84.75
2023-01-17T18:19:28.703Z,84.74
2023-01-17T18:21:56.431Z,84.78
2023-01-17T18:24:25.223Z,85.12
2023-01-17T18:27:01.020Z,84.81
2023-01-17T18:29:30.773Z,85.22
2023-01-17T18:34:51.768Z,84.95
2023-01-17T18:37:25.268Z,84.85
2023-01-17T18:39:56.327Z,84.68
2023-01-17T18:42:24.214Z,85.05
2023-01-17T18:47:49.237Z,85.02
2023-01-17T18:53:12.232Z,85.44
2023-01-17T18:55:40.198Z,85.27
2023-01-17T18:58:36.603Z,85.40
2023-01-17T19:01:14.579Z,85.10
2023-01-17T19:03:50.659Z,85.15
2023-01-17T19:06:21.613Z,85.57
2023-01-17T19:08:52.068Z,85.23
2023-01-17T19:11:22.777Z,85.20
2023-01-17T19:13:50.981Z,85.26
2023-01-17T19:16:29.674Z,85.29
2023-01-17T19:19:10.170Z,85.44
2023-01-17T19:21:38.468Z,85.37
2023-01-17T19:24:07.500Z,85.48
2023-01-17T19:26:34.366Z,85.43
2023-01-17T19:29:31.761Z,85.46
2023-01-17T19:34:52.211Z,85.02
2023-01-17T19:37:25.834Z,85.21
2023-01-17T19:39:59.307Z,85.14
2023-01-17T19:42:26.675Z,85.02
2023-01-17T19:45:19.738Z,85.16
2023-01-17T19:47:48.750Z,85.00
2023-01-17T19:50:18.676Z,85.23
2023-01-17T19:52:46.313Z,85.10
2023-01-17T19:55:14.320Z,84.91
2023-01-17T19:57:42.212Z,84.46
2023-01-17T20:00:16.604Z,84.75
2023-01-17T20:02:44.774Z,84.86
2023-01-17T20:05:14.438Z,84.70
2023-01-17T20:10:34.383Z,84.70
2023-01-17T20:13:06.233Z,85.17
2023-01-17T20:15:34.243Z,85.07
2023-01-17T20:18:02.447Z,84.76
2023-01-17T20:20:32.478Z,84.63
2023-01-17T20:23:05.368Z,84.43
2023-01-17T20:25:32.251Z,84.69
2023-01-17T20:28:00.170Z,84.36
2023-01-17T20:30:35.476Z,84.14
2023-01-17T20:33:02.236Z,84.55
2023-01-17T20:35:32.500Z,84.56
2023-01-17T20:38:00.224Z,84.62
2023-01-17T20:40:28.442Z,84.89
2023-01-17T20:45:58.893Z,84.16
2023-01-17T20:48:28.230Z,84.62
2023-01-17T20:51:07.155Z,84.45
2023-01-17T20:53:39.434Z,84.72
2023-01-17T20:56:34.760Z,84.78
2023-01-17T20:59:03.961Z,84.32
2023-01-17T21:01:32.926Z,84.14
2023-01-17T21:04:26.683Z,84.34
2023-01-17T21:06:54.739Z,84.34
2023-01-17T21:09:48.256Z,84.04
2023-01-17T21:12:17.481Z,84.10
2023-01-17T21:14:51.281Z,84.33
2023-01-17T21:17:19.214Z,83.97
2023-01-17T21:19:46.200Z,84.36
2023-01-17T21:22:16.661Z,84.21
2023-01-17T21:24:44.221Z,84.63
2023-01-17T21:27:12.883Z,84.29
2023-01-17T21:30:06.823Z,84.17
2023-01-17T21:32:34.258Z,84.04
2023-01-17T21:35:02.234Z,84.33
2023-01-17T21:37:34.207Z,84.31
2023-01-17T21:40:06.568Z,84.09
2023-01-17T21:42:34.369Z,84.58
2023-01-17T21:45:07.231Z,84.11
2023-01-17T21:47:34.327Z,84.84
2023-01-17T21:50:02.636Z,84.72
2023-01-17T21:52:31.625Z,84.76
2023-01-17T21:55:18.848Z,84.87
2023-01-17T21:58:10.902Z,84.64
2023-01-17T22:04:13.347Z,84.80
2023-01-17T22:06:41.309Z,84.72
2023-01-17T22:09:11.601Z,84.74
2023-01-17T22:12:04.615Z,84.57
2023-01-17T22:14:58.342Z,84.80
2023-01-17T22:17:31.453Z,84.72
2023-01-17T22:20:30.772Z,85.16
2023-01-17T22:23:26.262Z,85.24
2023-01-17T22:25:54.204Z,85.48
2023-01-17T22:28:22.386Z,85.51
2023-01-17T22:30:50.629Z,85.45
2023-01-17T22:33:18.242Z,85.46
2023-01-17T22:35:46.306Z,85.67
2023-01-17T22:38:14.247Z,85.56
2023-01-17T22:40:42.269Z,85.75
2023-01-17T22:43:14.259Z,85.75
2023-01-17T22:45:48.782Z,86.00
2023-01-17T22:48:18.055Z,85.94
2023-01-17T22:53:57.617Z,86.25
2023-01-17T22:56:33.733Z,86.53
2023-01-17T22:59:02.382Z,85.99
2023-01-17T23:01:32.701Z,86.05
2023-01-17T23:04:07.695Z,86.09
2023-01-17T23:06:38.589Z,86.32
2023-01-17T23:09:10.559Z,86.23
2023-01-17T23:11:41.223Z,86.20
2023-01-17T23:17:32.717Z,85.95
2023-01-17T23:20:00.211Z,86.13
2023-01-17T23:22:29.969Z,86.07
2023-01-17T23:25:06.350Z,86.09
2023-01-17T23:28:00.299Z,86.08
2023-01-17T23:30:34.712Z,86.10
2023-01-17T23:33:05.643Z,85.89
2023-01-17T23:35:44.056Z,86.00
2023-01-17T23:38:26.387Z,86.23
2023-01-17T23:44:43.653Z,86.42
2023-01-17T23:47:12.557Z,86.81
2023-01-17T23:49:40.218Z,86.94
2023-01-17T23:52:08.253Z,86.43
2023-01-17T23:54:36.270Z,86.69
2023-01-17T23:57:04.332Z,87.16
2023-01-17T23:59:32.762Z,86.98
